sensor_id;sensor_type;location;lat;lon;timestamp;temperature;humidity
2012;DHT22;1009;51.436;6.972;2022-12-08T00:01:17;4.60;99.90
2012;DHT22;1009;51.436;6.972;2022-12-08T00:03:44;4.60;99.90
2012;DHT22;1009;51.436;6.972;2022-12-08T00:06:21;4.60;99.90
2012;DHT22;1009;51.436;6.972;2022-12-08T00:09:15;4.60;99.90
2012;DHT22;1009;51.436;6.972;2022-12-08T00:11:55;4.60;99.90
2012;DHT22;1009;51.436;6.972;2022-12-08T00:14:23;4.50;99.90
2012;DHT22;1009;51.436;6.972;2022-12-08T00:16:51;4.50;99.90
2012;DHT22;1009;51.436;6.972;2022-12-08T00:19:17;4.60;99.90
2012;DHT22;1009;51.436;6.972;2022-12-08T00:21:44;4.60;99.90
2012;DHT22;1009;51.436;6.972;2022-12-08T00:24:11;4.50;99.90
2012;DHT22;1009;51.436;6.972;2022-12-08T00:26:38;4.50;99.90
2012;DHT22;1009;51.436;6.972;2022-12-08T00:29:06;4.50;99.90
2012;DHT22;1009;51.436;6.972;2022-12-08T00:31:33;4.50;99.90
2012;DHT22;1009;51.436;6.972;2022-12-08T00:34:00;4.50;99.90
2012;DHT22;1009;51.436;6.972;2022-12-08T00:36:30;4.50;99.90
2012;DHT22;1009;51.436;6.972;2022-12-08T00:38:57;4.60;99.90
2012;DHT22;1009;51.436;6.972;2022-12-08T00:41:25;4.60;99.90
2012;DHT22;1009;51.436;6.972;2022-12-08T00:44:08;4.60;99.90
2012;DHT22;1009;51.436;6.972;2022-12-08T00:46:35;4.60;99.90
2012;DHT22;1009;51.436;6.972;2022-12-08T00:49:02;4.60;99.90
2012;DHT22;1009;51.436;6.972;2022-12-08T00:51:29;4.60;99.90
2012;DHT22;1009;51.436;6.972;2022-12-08T00:53:56;4.60;99.90
2012;DHT22;1009;51.436;6.972;2022-12-08T00:56:22;4.60;99.90
2012;DHT22;1009;51.436;6.972;2022-12-08T00:58:49;4.60;99.90
2012;DHT22;1009;51.436;6.972;2022-12-08T01:01:17;4.60;99.90
2012;DHT22;1009;51.436;6.972;2022-12-08T01:03:44;4.60;99.90
2012;DHT22;1009;51.436;6.972;2022-12-08T01:06:11;4.60;99.90
2012;DHT22;1009;51.436;6.972;2022-12-08T01:08:41;4.60;99.90
2012;DHT22;1009;51.436;6.972;2022-12-08T01:11:10;4.60;99.90
2012;DHT22;1009;51.436;6.972;2022-12-08T01:13:37;4.60;99.90
2012;DHT22;1009;51.436;6.972;2022-12-08T01:16:04;4.60;99.90
2012;DHT22;1009;51.436;6.972;2022-12-08T01:18:32;4.60;99.90
2012;DHT22;1009;51.436;6.972;2022-12-08T01:21:02;4.60;99.90
2012;DHT22;1009;51.436;6.972;2022-12-08T01:23:29;4.50;99.90
2012;DHT22;1009;51.436;6.972;2022-12-08T01:26:00;4.50;99.90
2012;DHT22;1009;51.436;6.972;2022-12-08T01:28:28;4.50;99.90
2012;DHT22;1009;51.436;6.972;2022-12-08T01:30:55;4.50;99.90
2012;DHT22;1009;51.436;6.972;2022-12-08T01:33:22;4.60;99.90
2012;DHT22;1009;51.436;6.972;2022-12-08T01:35:50;4.60;99.90
2012;DHT22;1009;51.436;6.972;2022-12-08T01:38:17;4.60;99.90
2012;DHT22;1009;51.436;6.972;2022-12-08T01:40:44;4.60;99.90
2012;DHT22;1009;51.436;6.972;2022-12-08T01:43:13;4.50;99.90
2012;DHT22;1009;51.436;6.972;2022-12-08T01:45:41;4.50;99.90
2012;DHT22;1009;51.436;6.972;2022-12-08T01:48:12;4.40;99.90
2012;DHT22;1009;51.436;6.972;2022-12-08T01:50:42;4.50;99.90
2012;DHT22;1009;51.436;6.972;2022-12-08T01:53:13;4.50;99.90
2012;DHT22;1009;51.436;6.972;2022-12-08T01:55:45;4.50;99.90
2012;DHT22;1009;51.436;6.972;2022-12-08T01:58:14;4.50;99.90
2012;DHT22;1009;51.436;6.972;2022-12-08T02:00:42;4.40;99.90
2012;DHT22;1009;51.436;6.972;2022-12-08T02:03:13;4.50;99.90
2012;DHT22;1009;51.436;6.972;2022-12-08T02:05:41;4.50;99.90
2012;DHT22;1009;51.436;6.972;2022-12-08T02:08:11;4.60;99.90
2012;DHT22;1009;51.436;6.972;2022-12-08T02:10:40;4.50;99.90
2012;DHT22;1009;51.436;6.972;2022-12-08T02:13:11;4.50;99.90
2012;DHT22;1009;51.436;6.972;2022-12-08T02:15:47;4.50;99.90
2012;DHT22;1009;51.436;6.972;2022-12-08T02:18:33;4.50;99.90
2012;DHT22;1009;51.436;6.972;2022-12-08T02:21:07;4.50;99.90
2012;DHT22;1009;51.436;6.972;2022-12-08T02:23:44;4.40;99.90
2012;DHT22;1009;51.436;6.972;2022-12-08T02:26:39;4.40;99.90
2012;DHT22;1009;51.436;6.972;2022-12-08T02:29:34;4.40;99.90
2012;DHT22;1009;51.436;6.972;2022-12-08T02:32:22;4.40;99.90
2012;DHT22;1009;51.436;6.972;2022-12-08T02:34:58;4.50;99.90
2012;DHT22;1009;51.436;6.972;2022-12-08T02:37:31;4.50;99.90
2012;DHT22;1009;51.436;6.972;2022-12-08T02:40:02;4.50;99.90
2012;DHT22;1009;51.436;6.972;2022-12-08T02:42:36;4.50;99.90
2012;DHT22;1009;51.436;6.972;2022-12-08T02:45:07;4.60;99.90
2012;DHT22;1009;51.436;6.972;2022-12-08T02:47:36;4.60;99.90
2012;DHT22;1009;51.436;6.972;2022-12-08T02:50:06;4.60;99.90
2012;DHT22;1009;51.436;6.972;2022-12-08T02:52:44;4.50;99.90
2012;DHT22;1009;51.436;6.972;2022-12-08T02:55:20;4.50;99.90
2012;DHT22;1009;51.436;6.972;2022-12-08T03:01:06;4.50;99.90
2012;DHT22;1009;51.436;6.972;2022-12-08T03:03:44;4.50;99.90
2012;DHT22;1009;51.436;6.972;2022-12-08T03:06:23;4.50;99.90
2012;DHT22;1009;51.436;6.972;2022-12-08T03:08:56;4.50;99.90
2012;DHT22;1009;51.436;6.972;2022-12-08T03:11:32;4.50;99.90
2012;DHT22;1009;51.436;6.972;2022-12-08T03:14:02;4.50;99.90
2012;DHT22;1009;51.436;6.972;2022-12-08T03:16:31;4.50;99.90
2012;DHT22;1009;51.436;6.972;2022-12-08T03:19:01;4.50;99.90
2012;DHT22;1009;51.436;6.972;2022-12-08T03:21:32;4.60;99.90
2012;DHT22;1009;51.436;6.972;2022-12-08T03:24:01;4.60;99.90
2012;DHT22;1009;51.436;6.972;2022-12-08T03:26:35;4.70;99.90
2012;DHT22;1009;51.436;6.972;2022-12-08T03:29:05;4.70;99.90
2012;DHT22;1009;51.436;6.972;2022-12-08T03:31:34;4.60;99.90
2012;DHT22;1009;51.436;6.972;2022-12-08T03:34:04;4.60;99.90
2012;DHT22;1009;51.436;6.972;2022-12-08T03:36:32;4.70;99.90
2012;DHT22;1009;51.436;6.972;2022-12-08T03:38:59;4.70;99.90
2012;DHT22;1009;51.436;6.972;2022-12-08T03:41:26;4.60;99.90
2012;DHT22;1009;51.436;6.972;2022-12-08T03:43:54;4.50;99.90
2012;DHT22;1009;51.436;6.972;2022-12-08T03:46:24;4.60;99.90
2012;DHT22;1009;51.436;6.972;2022-12-08T03:48:54;4.60;99.90
2012;DHT22;1009;51.436;6.972;2022-12-08T03:51:22;4.60;99.90
2012;DHT22;1009;51.436;6.972;2022-12-08T03:53:50;4.70;99.90
2012;DHT22;1009;51.436;6.972;2022-12-08T03:56:22;4.70;99.90
2012;DHT22;1009;51.436;6.972;2022-12-08T03:58:49;4.70;99.90
2012;DHT22;1009;51.436;6.972;2022-12-08T04:01:16;4.60;99.90
2012;DHT22;1009;51.436;6.972;2022-12-08T04:03:42;4.70;99.90
2012;DHT22;1009;51.436;6.972;2022-12-08T04:06:09;4.70;99.90
2012;DHT22;1009;51.436;6.972;2022-12-08T04:08:36;4.60;99.90
2012;DHT22;1009;51.436;6.972;2022-12-08T04:11:05;4.60;99.90
2012;DHT22;1009;51.436;6.972;2022-12-08T04:13:32;4.60;99.90
2012;DHT22;1009;51.436;6.972;2022-12-08T04:15:58;4.60;99.90
2012;DHT22;1009;51.436;6.972;2022-12-08T04:18:25;4.60;99.90
2012;DHT22;1009;51.436;6.972;2022-12-08T04:20:52;4.50;99.90
2012;DHT22;1009;51.436;6.972;2022-12-08T04:23:19;4.60;99.90
2012;DHT22;1009;51.436;6.972;2022-12-08T04:25:45;4.70;99.90
2012;DHT22;1009;51.436;6.972;2022-12-08T04:28:13;4.60;99.90
2012;DHT22;1009;51.436;6.972;2022-12-08T04:30:40;4.60;99.90
2012;DHT22;1009;51.436;6.972;2022-12-08T04:33:07;4.60;99.90
2012;DHT22;1009;51.436;6.972;2022-12-08T04:35:34;4.60;99.90
2012;DHT22;1009;51.436;6.972;2022-12-08T04:38:01;4.50;99.90
2012;DHT22;1009;51.436;6.972;2022-12-08T04:40:28;4.50;99.90
2012;DHT22;1009;51.436;6.972;2022-12-08T04:42:54;4.40;99.90
2012;DHT22;1009;51.436;6.972;2022-12-08T04:45:22;4.40;99.90
2012;DHT22;1009;51.436;6.972;2022-12-08T04:47:49;4.40;99.90
2012;DHT22;1009;51.436;6.972;2022-12-08T04:50:16;4.50;99.90
2012;DHT22;1009;51.436;6.972;2022-12-08T04:52:42;4.50;99.90
2012;DHT22;1009;51.436;6.972;2022-12-08T04:55:09;4.60;99.90
2012;DHT22;1009;51.436;6.972;2022-12-08T04:57:37;4.60;99.90
2012;DHT22;1009;51.436;6.972;2022-12-08T05:00:05;4.50;99.90
2012;DHT22;1009;51.436;6.972;2022-12-08T05:02:33;4.60;99.90
2012;DHT22;1009;51.436;6.972;2022-12-08T05:05:00;4.60;99.90
2012;DHT22;1009;51.436;6.972;2022-12-08T05:07:27;4.60;99.90
2012;DHT22;1009;51.436;6.972;2022-12-08T05:09:54;4.60;99.90
2012;DHT22;1009;51.436;6.972;2022-12-08T05:12:21;4.50;99.90
2012;DHT22;1009;51.436;6.972;2022-12-08T05:14:47;4.50;99.90
2012;DHT22;1009;51.436;6.972;2022-12-08T05:17:14;4.50;99.90
2012;DHT22;1009;51.436;6.972;2022-12-08T05:19:42;4.50;99.90
2012;DHT22;1009;51.436;6.972;2022-12-08T05:22:09;4.60;99.90
2012;DHT22;1009;51.436;6.972;2022-12-08T05:24:36;4.50;99.90
2012;DHT22;1009;51.436;6.972;2022-12-08T05:27:03;4.50;99.90
2012;DHT22;1009;51.436;6.972;2022-12-08T05:29:30;4.50;99.90
2012;DHT22;1009;51.436;6.972;2022-12-08T05:31:57;4.50;99.90
2012;DHT22;1009;51.436;6.972;2022-12-08T05:34:24;4.50;99.90
2012;DHT22;1009;51.436;6.972;2022-12-08T05:36:52;4.50;99.90
2012;DHT22;1009;51.436;6.972;2022-12-08T05:39:19;4.40;99.90
2012;DHT22;1009;51.436;6.972;2022-12-08T05:41:45;4.40;99.90
2012;DHT22;1009;51.436;6.972;2022-12-08T05:44:12;4.40;99.90
2012;DHT22;1009;51.436;6.972;2022-12-08T05:46:39;4.50;99.90
2012;DHT22;1009;51.436;6.972;2022-12-08T05:49:06;4.50;99.90
2012;DHT22;1009;51.436;6.972;2022-12-08T05:51:32;4.40;99.90
2012;DHT22;1009;51.436;6.972;2022-12-08T05:54:00;4.50;99.90
2012;DHT22;1009;51.436;6.972;2022-12-08T05:56:27;4.40;99.90
2012;DHT22;1009;51.436;6.972;2022-12-08T05:58:54;4.50;99.90
2012;DHT22;1009;51.436;6.972;2022-12-08T06:01:22;4.50;99.90
2012;DHT22;1009;51.436;6.972;2022-12-08T06:03:49;4.50;99.90
2012;DHT22;1009;51.436;6.972;2022-12-08T06:06:16;4.50;99.90
2012;DHT22;1009;51.436;6.972;2022-12-08T06:08:43;4.50;99.90
2012;DHT22;1009;51.436;6.972;2022-12-08T06:11:16;4.50;99.90
2012;DHT22;1009;51.436;6.972;2022-12-08T06:13:43;4.50;99.90
2012;DHT22;1009;51.436;6.972;2022-12-08T06:16:10;4.50;99.90
2012;DHT22;1009;51.436;6.972;2022-12-08T06:18:37;4.50;99.90
2012;DHT22;1009;51.436;6.972;2022-12-08T06:21:04;4.40;99.90
2012;DHT22;1009;51.436;6.972;2022-12-08T06:23:31;4.40;99.90
2012;DHT22;1009;51.436;6.972;2022-12-08T06:26:03;4.50;99.90
2012;DHT22;1009;51.436;6.972;2022-12-08T06:28:33;4.50;99.90
2012;DHT22;1009;51.436;6.972;2022-12-08T06:31:06;4.50;99.90
2012;DHT22;1009;51.436;6.972;2022-12-08T06:33:33;4.50;99.90
2012;DHT22;1009;51.436;6.972;2022-12-08T06:36:00;4.50;99.90
2012;DHT22;1009;51.436;6.972;2022-12-08T06:38:27;4.50;99.90
2012;DHT22;1009;51.436;6.972;2022-12-08T06:40:54;4.50;99.90
2012;DHT22;1009;51.436;6.972;2022-12-08T06:43:22;4.40;99.90
2012;DHT22;1009;51.436;6.972;2022-12-08T06:45:50;4.40;99.90
2012;DHT22;1009;51.436;6.972;2022-12-08T06:48:18;4.40;99.90
2012;DHT22;1009;51.436;6.972;2022-12-08T06:50:45;4.30;99.90
2012;DHT22;1009;51.436;6.972;2022-12-08T06:53:12;4.40;99.90
2012;DHT22;1009;51.436;6.972;2022-12-08T06:55:42;4.30;99.90
2012;DHT22;1009;51.436;6.972;2022-12-08T06:58:10;4.30;99.90
2012;DHT22;1009;51.436;6.972;2022-12-08T07:00:37;4.30;99.90
2012;DHT22;1009;51.436;6.972;2022-12-08T07:03:06;4.30;99.90
2012;DHT22;1009;51.436;6.972;2022-12-08T07:05:32;4.30;99.90
2012;DHT22;1009;51.436;6.972;2022-12-08T07:07:59;4.30;99.90
2012;DHT22;1009;51.436;6.972;2022-12-08T07:10:26;4.30;99.90
2012;DHT22;1009;51.436;6.972;2022-12-08T07:12:53;4.30;99.90
2012;DHT22;1009;51.436;6.972;2022-12-08T07:15:19;4.30;99.90
2012;DHT22;1009;51.436;6.972;2022-12-08T07:17:46;4.30;99.90
2012;DHT22;1009;51.436;6.972;2022-12-08T07:20:15;4.30;99.90
2012;DHT22;1009;51.436;6.972;2022-12-08T07:22:47;4.30;99.90
2012;DHT22;1009;51.436;6.972;2022-12-08T07:25:14;4.20;99.90
2012;DHT22;1009;51.436;6.972;2022-12-08T07:27:41;4.20;99.90
2012;DHT22;1009;51.436;6.972;2022-12-08T07:30:08;4.30;99.90
2012;DHT22;1009;51.436;6.972;2022-12-08T07:32:35;4.30;99.90
2012;DHT22;1009;51.436;6.972;2022-12-08T07:35:02;4.30;99.90
2012;DHT22;1009;51.436;6.972;2022-12-08T07:37:31;4.20;99.90
2012;DHT22;1009;51.436;6.972;2022-12-08T07:39:58;4.20;99.90
2012;DHT22;1009;51.436;6.972;2022-12-08T07:42:25;4.20;99.90
2012;DHT22;1009;51.436;6.972;2022-12-08T07:44:52;4.20;99.90
2012;DHT22;1009;51.436;6.972;2022-12-08T07:47:18;4.20;99.90
2012;DHT22;1009;51.436;6.972;2022-12-08T07:49:45;4.10;99.90
2012;DHT22;1009;51.436;6.972;2022-12-08T07:52:12;4.10;99.90
2012;DHT22;1009;51.436;6.972;2022-12-08T07:54:40;4.10;99.90
2012;DHT22;1009;51.436;6.972;2022-12-08T07:57:07;4.10;99.90
2012;DHT22;1009;51.436;6.972;2022-12-08T07:59:34;4.10;99.90
2012;DHT22;1009;51.436;6.972;2022-12-08T08:02:01;4.10;99.90
2012;DHT22;1009;51.436;6.972;2022-12-08T08:04:28;4.10;99.90
2012;DHT22;1009;51.436;6.972;2022-12-08T08:06:54;4.00;99.90
2012;DHT22;1009;51.436;6.972;2022-12-08T08:09:21;4.00;99.90
2012;DHT22;1009;51.436;6.972;2022-12-08T08:11:49;4.00;99.90
2012;DHT22;1009;51.436;6.972;2022-12-08T08:14:16;4.00;99.90
2012;DHT22;1009;51.436;6.972;2022-12-08T08:16:45;4.00;99.90
2012;DHT22;1009;51.436;6.972;2022-12-08T08:19:11;4.00;99.90
2012;DHT22;1009;51.436;6.972;2022-12-08T08:21:38;4.00;99.90
2012;DHT22;1009;51.436;6.972;2022-12-08T08:24:05;3.90;99.90
2012;DHT22;1009;51.436;6.972;2022-12-08T08:26:32;3.90;99.90
2012;DHT22;1009;51.436;6.972;2022-12-08T08:29:00;4.00;99.90
2012;DHT22;1009;51.436;6.972;2022-12-08T08:31:27;4.00;99.90
2012;DHT22;1009;51.436;6.972;2022-12-08T08:33:54;4.00;99.90
2012;DHT22;1009;51.436;6.972;2022-12-08T08:36:21;4.00;99.90
2012;DHT22;1009;51.436;6.972;2022-12-08T08:38:48;4.10;99.90
2012;DHT22;1009;51.436;6.972;2022-12-08T08:41:15;4.10;99.90
2012;DHT22;1009;51.436;6.972;2022-12-08T08:43:41;4.10;99.90
2012;DHT22;1009;51.436;6.972;2022-12-08T08:46:09;4.10;99.90
2012;DHT22;1009;51.436;6.972;2022-12-08T08:48:36;4.10;99.90
2012;DHT22;1009;51.436;6.972;2022-12-08T08:51:07;4.10;99.90
2012;DHT22;1009;51.436;6.972;2022-12-08T08:53:34;4.10;99.90
2012;DHT22;1009;51.436;6.972;2022-12-08T08:56:01;4.10;99.90
2012;DHT22;1009;51.436;6.972;2022-12-08T08:58:29;4.00;99.90
2012;DHT22;1009;51.436;6.972;2022-12-08T09:00:56;4.10;99.90
2012;DHT22;1009;51.436;6.972;2022-12-08T09:03:24;4.20;99.90
2012;DHT22;1009;51.436;6.972;2022-12-08T09:05:53;4.10;99.90
2012;DHT22;1009;51.436;6.972;2022-12-08T09:08:20;4.20;99.90
2012;DHT22;1009;51.436;6.972;2022-12-08T09:10:49;4.10;99.90
2012;DHT22;1009;51.436;6.972;2022-12-08T09:13:16;4.10;99.90
2012;DHT22;1009;51.436;6.972;2022-12-08T09:15:43;4.10;99.90
2012;DHT22;1009;51.436;6.972;2022-12-08T09:18:09;4.10;99.90
2012;DHT22;1009;51.436;6.972;2022-12-08T09:20:38;4.20;99.90
2012;DHT22;1009;51.436;6.972;2022-12-08T09:23:05;4.10;99.90
2012;DHT22;1009;51.436;6.972;2022-12-08T09:25:35;4.10;99.90
2012;DHT22;1009;51.436;6.972;2022-12-08T09:28:01;4.10;99.90
2012;DHT22;1009;51.436;6.972;2022-12-08T09:30:28;4.10;99.90
2012;DHT22;1009;51.436;6.972;2022-12-08T09:32:55;4.20;99.90
2012;DHT22;1009;51.436;6.972;2022-12-08T09:35:22;4.20;99.90
2012;DHT22;1009;51.436;6.972;2022-12-08T09:37:53;4.20;99.90
2012;DHT22;1009;51.436;6.972;2022-12-08T09:40:22;4.20;99.90
2012;DHT22;1009;51.436;6.972;2022-12-08T09:42:51;4.20;99.90
2012;DHT22;1009;51.436;6.972;2022-12-08T09:45:22;4.20;99.90
2012;DHT22;1009;51.436;6.972;2022-12-08T09:47:57;4.20;99.90
2012;DHT22;1009;51.436;6.972;2022-12-08T09:50:29;4.30;99.90
2012;DHT22;1009;51.436;6.972;2022-12-08T09:53:02;4.30;99.90
2012;DHT22;1009;51.436;6.972;2022-12-08T09:55:37;4.30;99.90
2012;DHT22;1009;51.436;6.972;2022-12-08T09:58:12;4.30;99.90
2012;DHT22;1009;51.436;6.972;2022-12-08T10:00:41;4.30;99.90
2012;DHT22;1009;51.436;6.972;2022-12-08T10:03:10;4.30;99.90
2012;DHT22;1009;51.436;6.972;2022-12-08T10:05:42;4.30;99.90
2012;DHT22;1009;51.436;6.972;2022-12-08T10:08:17;4.40;99.90
2012;DHT22;1009;51.436;6.972;2022-12-08T10:10:46;4.30;99.90
2012;DHT22;1009;51.436;6.972;2022-12-08T10:13:20;4.40;99.90
2012;DHT22;1009;51.436;6.972;2022-12-08T10:15:56;4.40;99.90
2012;DHT22;1009;51.436;6.972;2022-12-08T10:18:26;4.40;99.90
2012;DHT22;1009;51.436;6.972;2022-12-08T10:20:56;4.40;99.90
2012;DHT22;1009;51.436;6.972;2022-12-08T10:23:28;4.30;99.90
2012;DHT22;1009;51.436;6.972;2022-12-08T10:26:00;4.30;99.90
2012;DHT22;1009;51.436;6.972;2022-12-08T10:28:27;4.30;99.90
2012;DHT22;1009;51.436;6.972;2022-12-08T10:30:54;4.30;99.90
2012;DHT22;1009;51.436;6.972;2022-12-08T10:33:21;4.30;99.90
2012;DHT22;1009;51.436;6.972;2022-12-08T10:35:49;4.20;99.90
2012;DHT22;1009;51.436;6.972;2022-12-08T10:38:20;4.20;99.90
2012;DHT22;1009;51.436;6.972;2022-12-08T10:40:51;4.10;99.90
2012;DHT22;1009;51.436;6.972;2022-12-08T10:43:22;4.10;99.90
2012;DHT22;1009;51.436;6.972;2022-12-08T10:45:50;4.10;99.90
2012;DHT22;1009;51.436;6.972;2022-12-08T10:48:18;4.00;99.90
2012;DHT22;1009;51.436;6.972;2022-12-08T10:50:53;4.00;99.90
2012;DHT22;1009;51.436;6.972;2022-12-08T10:53:22;4.00;99.90
2012;DHT22;1009;51.436;6.972;2022-12-08T10:55:51;4.10;99.90
2012;DHT22;1009;51.436;6.972;2022-12-08T10:58:23;4.10;99.90
2012;DHT22;1009;51.436;6.972;2022-12-08T11:00:53;4.10;99.90
2012;DHT22;1009;51.436;6.972;2022-12-08T11:03:24;4.20;99.90
2012;DHT22;1009;51.436;6.972;2022-12-08T11:05:55;4.20;99.90
2012;DHT22;1009;51.436;6.972;2022-12-08T11:08:23;4.30;99.90
2012;DHT22;1009;51.436;6.972;2022-12-08T11:10:51;4.30;99.90
2012;DHT22;1009;51.436;6.972;2022-12-08T11:13:22;4.40;99.90
2012;DHT22;1009;51.436;6.972;2022-12-08T11:15:49;4.40;99.90
2012;DHT22;1009;51.436;6.972;2022-12-08T11:18:24;4.40;99.90
2012;DHT22;1009;51.436;6.972;2022-12-08T11:20:59;4.40;99.90
2012;DHT22;1009;51.436;6.972;2022-12-08T11:23:27;4.40;99.90
2012;DHT22;1009;51.436;6.972;2022-12-08T11:26:01;4.40;99.90
2012;DHT22;1009;51.436;6.972;2022-12-08T11:28:29;4.40;99.90
2012;DHT22;1009;51.436;6.972;2022-12-08T11:31:03;4.40;99.90
2012;DHT22;1009;51.436;6.972;2022-12-08T11:33:30;4.40;99.90
2012;DHT22;1009;51.436;6.972;2022-12-08T11:36:01;4.40;99.90
2012;DHT22;1009;51.436;6.972;2022-12-08T11:38:28;4.50;99.90
2012;DHT22;1009;51.436;6.972;2022-12-08T11:41:02;4.50;99.90
2012;DHT22;1009;51.436;6.972;2022-12-08T11:43:38;4.40;99.90
2012;DHT22;1009;51.436;6.972;2022-12-08T11:46:11;4.50;99.90
2012;DHT22;1009;51.436;6.972;2022-12-08T11:48:45;4.40;99.90
2012;DHT22;1009;51.436;6.972;2022-12-08T11:51:17;4.40;99.90
2012;DHT22;1009;51.436;6.972;2022-12-08T11:53:53;4.40;99.90
2012;DHT22;1009;51.436;6.972;2022-12-08T11:56:28;4.30;99.90
2012;DHT22;1009;51.436;6.972;2022-12-08T11:59:00;4.40;99.90
2012;DHT22;1009;51.436;6.972;2022-12-08T12:01:28;4.40;99.90
2012;DHT22;1009;51.436;6.972;2022-12-08T12:04:00;4.40;99.90
2012;DHT22;1009;51.436;6.972;2022-12-08T12:07:04;4.40;99.90
2012;DHT22;1009;51.436;6.972;2022-12-08T12:09:47;4.50;99.90
2012;DHT22;1009;51.436;6.972;2022-12-08T12:12:29;4.40;99.90
2012;DHT22;1009;51.436;6.972;2022-12-08T12:15:26;4.50;99.90
2012;DHT22;1009;51.436;6.972;2022-12-08T12:18:00;4.50;99.90
2012;DHT22;1009;51.436;6.972;2022-12-08T12:20:30;4.40;99.90
2012;DHT22;1009;51.436;6.972;2022-12-08T12:23:01;4.40;99.90
2012;DHT22;1009;51.436;6.972;2022-12-08T12:25:31;4.30;99.90
2012;DHT22;1009;51.436;6.972;2022-12-08T12:28:03;4.30;99.90
2012;DHT22;1009;51.436;6.972;2022-12-08T12:30:48;4.20;99.90
2012;DHT22;1009;51.436;6.972;2022-12-08T12:33:15;4.10;99.90
2012;DHT22;1009;51.436;6.972;2022-12-08T12:35:44;4.10;99.90
2012;DHT22;1009;51.436;6.972;2022-12-08T12:38:19;3.90;99.90
2012;DHT22;1009;51.436;6.972;2022-12-08T12:41:05;3.80;99.90
2012;DHT22;1009;51.436;6.972;2022-12-08T12:43:36;3.70;99.90
2012;DHT22;1009;51.436;6.972;2022-12-08T12:46:39;3.70;99.90
2012;DHT22;1009;51.436;6.972;2022-12-08T12:52:38;3.60;99.90
2012;DHT22;1009;51.436;6.972;2022-12-08T12:58:40;3.60;99.90
2012;DHT22;1009;51.436;6.972;2022-12-08T13:04:17;3.60;99.90
2012;DHT22;1009;51.436;6.972;2022-12-08T13:06:47;3.50;99.90
2012;DHT22;1009;51.436;6.972;2022-12-08T13:09:33;3.60;99.90
2012;DHT22;1009;51.436;6.972;2022-12-08T13:12:07;3.60;99.90
2012;DHT22;1009;51.436;6.972;2022-12-08T13:14:43;3.60;99.90
2012;DHT22;1009;51.436;6.972;2022-12-08T13:17:12;3.60;99.90
2012;DHT22;1009;51.436;6.972;2022-12-08T13:19:42;3.50;99.90
2012;DHT22;1009;51.436;6.972;2022-12-08T13:25:48;3.30;99.90
2012;DHT22;1009;51.436;6.972;2022-12-08T13:28:24;3.40;99.90
2012;DHT22;1009;51.436;6.972;2022-12-08T13:30:54;3.40;99.90
2012;DHT22;1009;51.436;6.972;2022-12-08T13:33:29;3.50;99.90
2012;DHT22;1009;51.436;6.972;2022-12-08T13:36:11;3.60;99.90
2012;DHT22;1009;51.436;6.972;2022-12-08T13:38:42;3.60;99.90
2012;DHT22;1009;51.436;6.972;2022-12-08T13:41:15;3.60;99.90
2012;DHT22;1009;51.436;6.972;2022-12-08T13:43:46;3.70;99.90
2012;DHT22;1009;51.436;6.972;2022-12-08T13:46:21;3.80;99.90
2012;DHT22;1009;51.436;6.972;2022-12-08T13:48:50;3.90;99.90
2012;DHT22;1009;51.436;6.972;2022-12-08T13:51:22;4.00;99.90
2012;DHT22;1009;51.436;6.972;2022-12-08T13:53:59;4.00;99.90
2012;DHT22;1009;51.436;6.972;2022-12-08T13:56:28;4.00;99.90
2012;DHT22;1009;51.436;6.972;2022-12-08T13:59:09;3.90;99.90
2012;DHT22;1009;51.436;6.972;2022-12-08T14:01:50;3.80;99.90
2012;DHT22;1009;51.436;6.972;2022-12-08T14:04:19;3.70;99.90
2012;DHT22;1009;51.436;6.972;2022-12-08T14:06:48;3.70;99.90
2012;DHT22;1009;51.436;6.972;2022-12-08T14:09:17;3.80;99.90
2012;DHT22;1009;51.436;6.972;2022-12-08T14:11:49;3.80;99.90
2012;DHT22;1009;51.436;6.972;2022-12-08T14:14:19;3.80;99.90
2012;DHT22;1009;51.436;6.972;2022-12-08T14:16:54;3.70;99.90
2012;DHT22;1009;51.436;6.972;2022-12-08T14:19:23;3.70;99.90
2012;DHT22;1009;51.436;6.972;2022-12-08T14:21:54;3.70;99.90
2012;DHT22;1009;51.436;6.972;2022-12-08T14:24:22;3.80;99.90
2012;DHT22;1009;51.436;6.972;2022-12-08T14:26:51;3.80;99.90
2012;DHT22;1009;51.436;6.972;2022-12-08T14:29:39;3.80;99.90
2012;DHT22;1009;51.436;6.972;2022-12-08T14:32:22;3.80;99.90
2012;DHT22;1009;51.436;6.972;2022-12-08T14:34:51;3.70;99.90
2012;DHT22;1009;51.436;6.972;2022-12-08T14:37:19;3.70;99.90
2012;DHT22;1009;51.436;6.972;2022-12-08T14:39:46;3.80;99.90
2012;DHT22;1009;51.436;6.972;2022-12-08T14:42:20;3.80;99.90
2012;DHT22;1009;51.436;6.972;2022-12-08T14:44:58;3.90;99.90
2012;DHT22;1009;51.436;6.972;2022-12-08T14:47:30;3.90;99.90
2012;DHT22;1009;51.436;6.972;2022-12-08T14:49:57;3.90;99.90
2012;DHT22;1009;51.436;6.972;2022-12-08T14:52:25;3.90;99.90
2012;DHT22;1009;51.436;6.972;2022-12-08T14:54:53;4.00;99.90
2012;DHT22;1009;51.436;6.972;2022-12-08T14:57:21;4.10;99.90
2012;DHT22;1009;51.436;6.972;2022-12-08T14:59:48;4.10;99.90
2012;DHT22;1009;51.436;6.972;2022-12-08T15:02:25;4.10;99.90
2012;DHT22;1009;51.436;6.972;2022-12-08T15:04:59;4.00;99.90
2012;DHT22;1009;51.436;6.972;2022-12-08T15:07:28;4.00;99.90
2012;DHT22;1009;51.436;6.972;2022-12-08T15:10:19;4.10;99.90
2012;DHT22;1009;51.436;6.972;2022-12-08T15:12:57;4.10;99.90
2012;DHT22;1009;51.436;6.972;2022-12-08T15:15:24;4.10;99.90
2012;DHT22;1009;51.436;6.972;2022-12-08T15:17:59;4.20;99.90
2012;DHT22;1009;51.436;6.972;2022-12-08T15:20:33;4.30;99.90
2012;DHT22;1009;51.436;6.972;2022-12-08T15:23:05;4.40;99.90
2012;DHT22;1009;51.436;6.972;2022-12-08T15:25:32;4.40;99.90
2012;DHT22;1009;51.436;6.972;2022-12-08T15:28:01;4.40;99.90
2012;DHT22;1009;51.436;6.972;2022-12-08T15:30:28;4.40;99.90
2012;DHT22;1009;51.436;6.972;2022-12-08T15:32:56;4.50;99.90
2012;DHT22;1009;51.436;6.972;2022-12-08T15:35:23;4.50;99.90
2012;DHT22;1009;51.436;6.972;2022-12-08T15:37:51;4.50;99.90
2012;DHT22;1009;51.436;6.972;2022-12-08T15:40:20;4.40;99.90
2012;DHT22;1009;51.436;6.972;2022-12-08T15:42:47;4.50;99.90
2012;DHT22;1009;51.436;6.972;2022-12-08T15:45:15;4.50;99.90
2012;DHT22;1009;51.436;6.972;2022-12-08T15:47:44;4.50;99.90
2012;DHT22;1009;51.436;6.972;2022-12-08T15:50:14;4.40;99.90
2012;DHT22;1009;51.436;6.972;2022-12-08T15:52:42;4.40;99.90
2012;DHT22;1009;51.436;6.972;2022-12-08T15:55:12;4.50;99.90
2012;DHT22;1009;51.436;6.972;2022-12-08T15:57:41;4.50;99.90
2012;DHT22;1009;51.436;6.972;2022-12-08T16:00:27;4.60;99.90
2012;DHT22;1009;51.436;6.972;2022-12-08T16:02:54;4.60;99.90
2012;DHT22;1009;51.436;6.972;2022-12-08T16:05:22;4.60;99.90
2012;DHT22;1009;51.436;6.972;2022-12-08T16:07:49;4.60;99.90
2012;DHT22;1009;51.436;6.972;2022-12-08T16:10:19;4.60;99.90
2012;DHT22;1009;51.436;6.972;2022-12-08T16:12:47;4.50;99.90
2012;DHT22;1009;51.436;6.972;2022-12-08T16:15:33;4.50;99.90
2012;DHT22;1009;51.436;6.972;2022-12-08T16:18:01;4.50;99.90
2012;DHT22;1009;51.436;6.972;2022-12-08T16:20:28;4.40;99.90
2012;DHT22;1009;51.436;6.972;2022-12-08T16:22:55;4.40;99.90
2012;DHT22;1009;51.436;6.972;2022-12-08T16:25:23;4.40;99.90
2012;DHT22;1009;51.436;6.972;2022-12-08T16:27:52;4.40;99.90
2012;DHT22;1009;51.436;6.972;2022-12-08T16:30:19;4.40;99.90
2012;DHT22;1009;51.436;6.972;2022-12-08T16:32:47;4.40;99.90
2012;DHT22;1009;51.436;6.972;2022-12-08T16:35:14;4.40;99.90
2012;DHT22;1009;51.436;6.972;2022-12-08T16:37:41;4.40;99.90
2012;DHT22;1009;51.436;6.972;2022-12-08T16:40:10;4.40;99.90
2012;DHT22;1009;51.436;6.972;2022-12-08T16:42:38;4.50;99.90
2012;DHT22;1009;51.436;6.972;2022-12-08T16:45:13;4.50;99.90
2012;DHT22;1009;51.436;6.972;2022-12-08T16:47:41;4.60;99.90
2012;DHT22;1009;51.436;6.972;2022-12-08T16:50:11;4.50;99.90
2012;DHT22;1009;51.436;6.972;2022-12-08T16:52:38;4.50;99.90